sensor_id;sensor_type;location;lat;lon;timestamp;P1;durP1;ratioP1;P2;durP2;ratioP2
47856;SDS011;33618;49.972;8.242;2022-08-21T00:02:02;4.43;;;2.60;;
47856;SDS011;33618;49.972;8.242;2022-08-21T00:04:30;4.85;;;2.47;;
47856;SDS011;33618;49.972;8.242;2022-08-21T00:06:58;4.80;;;2.28;;
47856;SDS011;33618;49.972;8.242;2022-08-21T00:09:26;6.95;;;2.50;;
47856;SDS011;33618;49.972;8.242;2022-08-21T00:11:55;5.75;;;2.45;;
47856;SDS011;33618;49.972;8.242;2022-08-21T00:14:22;4.63;;;2.15;;
47856;SDS011;33618;49.972;8.242;2022-08-21T00:16:49;3.35;;;2.05;;
47856;SDS011;33618;49.972;8.242;2022-08-21T00:19:17;4.35;;;2.22;;
47856;SDS011;33618;49.972;8.242;2022-08-21T00:21:46;4.50;;;2.13;;
47856;SDS011;33618;49.972;8.242;2022-08-21T00:31:51;4.40;;;2.30;;
47856;SDS011;33618;49.972;8.242;2022-08-21T00:34:17;4.25;;;2.35;;
47856;SDS011;33618;49.972;8.242;2022-08-21T00:36:44;5.93;;;2.72;;
47856;SDS011;33618;49.972;8.242;2022-08-21T00:39:11;4.60;;;2.50;;
47856;SDS011;33618;49.972;8.242;2022-08-21T00:41:39;5.22;;;2.60;;
47856;SDS011;33618;49.972;8.242;2022-08-21T00:44:07;5.78;;;2.20;;
47856;SDS011;33618;49.972;8.242;2022-08-21T00:50:56;8.10;;;2.30;;
47856;SDS011;33618;49.972;8.242;2022-08-21T00:53:24;4.22;;;2.03;;
47856;SDS011;33618;49.972;8.242;2022-08-21T00:55:52;3.22;;;2.40;;
47856;SDS011;33618;49.972;8.242;2022-08-21T00:58:21;4.30;;;2.20;;
47856;SDS011;33618;49.972;8.242;2022-08-21T01:00:50;5.07;;;2.13;;
47856;SDS011;33618;49.972;8.242;2022-08-21T01:03:20;4.63;;;2.30;;
47856;SDS011;33618;49.972;8.242;2022-08-21T01:05:49;3.10;;;2.17;;
47856;SDS011;33618;49.972;8.242;2022-08-21T01:08:18;2.97;;;1.80;;
47856;SDS011;33618;49.972;8.242;2022-08-21T01:10:46;5.35;;;2.13;;
47856;SDS011;33618;49.972;8.242;2022-08-21T01:13:20;6.30;;;1.98;;
47856;SDS011;33618;49.972;8.242;2022-08-21T01:15:51;3.30;;;2.30;;
47856;SDS011;33618;49.972;8.242;2022-08-21T01:18:20;3.05;;;2.00;;
47856;SDS011;33618;49.972;8.242;2022-08-21T01:21:04;9.15;;;2.30;;
47856;SDS011;33618;49.972;8.242;2022-08-21T01:23:46;6.03;;;2.15;;
47856;SDS011;33618;49.972;8.242;2022-08-21T01:26:17;4.32;;;2.08;;
47856;SDS011;33618;49.972;8.242;2022-08-21T01:28:51;2.97;;;2.17;;
47856;SDS011;33618;49.972;8.242;2022-08-21T01:31:25;3.25;;;2.10;;
47856;SDS011;33618;49.972;8.242;2022-08-21T01:33:55;7.28;;;2.25;;
47856;SDS011;33618;49.972;8.242;2022-08-21T01:36:22;3.47;;;2.10;;
47856;SDS011;33618;49.972;8.242;2022-08-21T01:38:49;3.03;;;2.20;;
47856;SDS011;33618;49.972;8.242;2022-08-21T01:41:17;4.00;;;2.17;;
47856;SDS011;33618;49.972;8.242;2022-08-21T01:43:44;7.68;;;2.33;;
47856;SDS011;33618;49.972;8.242;2022-08-21T01:50:32;5.45;;;2.30;;
47856;SDS011;33618;49.972;8.242;2022-08-21T01:52:59;4.18;;;2.17;;
47856;SDS011;33618;49.972;8.242;2022-08-21T01:55:26;3.97;;;2.28;;
47856;SDS011;33618;49.972;8.242;2022-08-21T01:57:53;5.10;;;2.40;;
47856;SDS011;33618;49.972;8.242;2022-08-21T02:00:21;4.57;;;2.00;;
47856;SDS011;33618;49.972;8.242;2022-08-21T02:02:51;4.68;;;2.13;;
47856;SDS011;33618;49.972;8.242;2022-08-21T02:05:18;4.70;;;1.98;;
47856;SDS011;33618;49.972;8.242;2022-08-21T02:07:47;4.53;;;2.00;;
47856;SDS011;33618;49.972;8.242;2022-08-21T02:10:19;3.28;;;2.10;;
47856;SDS011;33618;49.972;8.242;2022-08-21T02:12:51;4.35;;;2.50;;
47856;SDS011;33618;49.972;8.242;2022-08-21T02:16:55;5.38;;;2.40;;
47856;SDS011;33618;49.972;8.242;2022-08-21T02:23:41;3.15;;;2.10;;
47856;SDS011;33618;49.972;8.242;2022-08-21T02:26:09;4.63;;;2.30;;
47856;SDS011;33618;49.972;8.242;2022-08-21T02:28:38;3.03;;;2.20;;
47856;SDS011;33618;49.972;8.242;2022-08-21T02:31:05;5.22;;;2.58;;
47856;SDS011;33618;49.972;8.242;2022-08-21T02:33:33;7.38;;;2.63;;
47856;SDS011;33618;49.972;8.242;2022-08-21T02:36:00;3.70;;;2.20;;
47856;SDS011;33618;49.972;8.242;2022-08-21T02:38:29;4.05;;;2.47;;
47856;SDS011;33618;49.972;8.242;2022-08-21T02:40:59;4.93;;;2.83;;
47856;SDS011;33618;49.972;8.242;2022-08-21T02:43:27;4.53;;;2.72;;
47856;SDS011;33618;49.972;8.242;2022-08-21T02:45:57;3.42;;;2.17;;
47856;SDS011;33618;49.972;8.242;2022-08-21T02:52:31;4.78;;;2.70;;
47856;SDS011;33618;49.972;8.242;2022-08-21T02:55:00;5.53;;;3.08;;
47856;SDS011;33618;49.972;8.242;2022-08-21T02:57:27;5.45;;;2.45;;
47856;SDS011;33618;49.972;8.242;2022-08-21T02:59:54;5.10;;;2.40;;
47856;SDS011;33618;49.972;8.242;2022-08-21T03:02:21;4.90;;;2.60;;
47856;SDS011;33618;49.972;8.242;2022-08-21T03:04:51;4.03;;;2.35;;
47856;SDS011;33618;49.972;8.242;2022-08-21T03:07:18;4.40;;;2.40;;
47856;SDS011;33618;49.972;8.242;2022-08-21T03:09:45;4.35;;;2.10;;
47856;SDS011;33618;49.972;8.242;2022-08-21T03:12:21;6.87;;;2.77;;
47856;SDS011;33618;49.972;8.242;2022-08-21T03:14:49;3.95;;;2.35;;
47856;SDS011;33618;49.972;8.242;2022-08-21T03:17:16;3.38;;;2.55;;
47856;SDS011;33618;49.972;8.242;2022-08-21T03:19:54;5.13;;;2.40;;
47856;SDS011;33618;49.972;8.242;2022-08-21T03:22:22;4.65;;;2.40;;
47856;SDS011;33618;49.972;8.242;2022-08-21T03:24:49;4.60;;;2.70;;
47856;SDS011;33618;49.972;8.242;2022-08-21T03:27:17;5.07;;;2.47;;
47856;SDS011;33618;49.972;8.242;2022-08-21T03:29:47;4.88;;;2.70;;
47856;SDS011;33618;49.972;8.242;2022-08-21T03:32:14;3.58;;;2.50;;
47856;SDS011;33618;49.972;8.242;2022-08-21T03:34:40;5.05;;;2.50;;
47856;SDS011;33618;49.972;8.242;2022-08-21T03:37:08;3.85;;;2.58;;
47856;SDS011;33618;49.972;8.242;2022-08-21T03:39:36;5.22;;;2.60;;
47856;SDS011;33618;49.972;8.242;2022-08-21T03:42:03;4.45;;;3.00;;
47856;SDS011;33618;49.972;8.242;2022-08-21T03:44:31;5.97;;;2.50;;
47856;SDS011;33618;49.972;8.242;2022-08-21T03:50:46;2.65;;;2.15;;
47856;SDS011;33618;49.972;8.242;2022-08-21T03:53:15;3.63;;;2.50;;
47856;SDS011;33618;49.972;8.242;2022-08-21T03:55:44;4.53;;;2.40;;
47856;SDS011;33618;49.972;8.242;2022-08-21T03:58:13;7.10;;;2.58;;
47856;SDS011;33618;49.972;8.242;2022-08-21T04:00:41;3.95;;;2.45;;
47856;SDS011;33618;49.972;8.242;2022-08-21T04:03:08;4.30;;;2.45;;
47856;SDS011;33618;49.972;8.242;2022-08-21T04:05:35;7.20;;;2.80;;
47856;SDS011;33618;49.972;8.242;2022-08-21T04:08:05;5.45;;;2.70;;
47856;SDS011;33618;49.972;8.242;2022-08-21T04:10:34;7.53;;;2.80;;
47856;SDS011;33618;49.972;8.242;2022-08-21T04:13:03;5.78;;;2.53;;
47856;SDS011;33618;49.972;8.242;2022-08-21T04:15:31;3.78;;;2.58;;
47856;SDS011;33618;49.972;8.242;2022-08-21T04:17:58;4.70;;;2.50;;
47856;SDS011;33618;49.972;8.242;2022-08-21T04:20:25;5.03;;;2.45;;
47856;SDS011;33618;49.972;8.242;2022-08-21T04:22:53;5.65;;;2.95;;
47856;SDS011;33618;49.972;8.242;2022-08-21T04:25:22;5.40;;;2.83;;
47856;SDS011;33618;49.972;8.242;2022-08-21T04:27:49;7.00;;;2.80;;
47856;SDS011;33618;49.972;8.242;2022-08-21T04:30:17;6.15;;;2.80;;
47856;SDS011;33618;49.972;8.242;2022-08-21T04:32:45;5.88;;;2.75;;
47856;SDS011;33618;49.972;8.242;2022-08-21T04:35:15;6.22;;;2.90;;
47856;SDS011;33618;49.972;8.242;2022-08-21T04:37:44;5.15;;;2.70;;
47856;SDS011;33618;49.972;8.242;2022-08-21T04:40:12;5.82;;;3.20;;
47856;SDS011;33618;49.972;8.242;2022-08-21T04:49:39;5.28;;;2.70;;
47856;SDS011;33618;49.972;8.242;2022-08-21T04:52:07;6.55;;;2.83;;
47856;SDS011;33618;49.972;8.242;2022-08-21T04:54:34;5.00;;;3.08;;
47856;SDS011;33618;49.972;8.242;2022-08-21T04:57:02;5.40;;;2.58;;
47856;SDS011;33618;49.972;8.242;2022-08-21T04:59:35;5.88;;;3.22;;
47856;SDS011;33618;49.972;8.242;2022-08-21T05:02:11;6.82;;;2.65;;
47856;SDS011;33618;49.972;8.242;2022-08-21T05:04:42;4.22;;;2.65;;
47856;SDS011;33618;49.972;8.242;2022-08-21T05:07:19;3.67;;;2.60;;
47856;SDS011;33618;49.972;8.242;2022-08-21T05:10:08;4.95;;;2.90;;
47856;SDS011;33618;49.972;8.242;2022-08-21T05:12:37;5.18;;;2.70;;
47856;SDS011;33618;49.972;8.242;2022-08-21T05:15:05;2.88;;;2.53;;
47856;SDS011;33618;49.972;8.242;2022-08-21T05:17:38;4.22;;;2.60;;
47856;SDS011;33618;49.972;8.242;2022-08-21T05:20:05;5.45;;;3.08;;
47856;SDS011;33618;49.972;8.242;2022-08-21T05:22:33;5.30;;;2.75;;
47856;SDS011;33618;49.972;8.242;2022-08-21T05:24:59;7.25;;;2.83;;
47856;SDS011;33618;49.972;8.242;2022-08-21T05:27:27;3.55;;;2.50;;
47856;SDS011;33618;49.972;8.242;2022-08-21T05:29:57;4.57;;;2.60;;
47856;SDS011;33618;49.972;8.242;2022-08-21T05:32:24;5.82;;;3.03;;
47856;SDS011;33618;49.972;8.242;2022-08-21T05:34:51;3.85;;;2.80;;
47856;SDS011;33618;49.972;8.242;2022-08-21T05:37:18;5.43;;;2.70;;
47856;SDS011;33618;49.972;8.242;2022-08-21T05:39:45;6.93;;;2.78;;
47856;SDS011;33618;49.972;8.242;2022-08-21T05:42:33;7.38;;;3.08;;
47856;SDS011;33618;49.972;8.242;2022-08-21T05:57:03;7.28;;;2.50;;
47856;SDS011;33618;49.972;8.242;2022-08-21T05:59:34;4.30;;;2.63;;
47856;SDS011;33618;49.972;8.242;2022-08-21T06:02:01;4.50;;;2.72;;
47856;SDS011;33618;49.972;8.242;2022-08-21T06:04:34;4.30;;;2.53;;
47856;SDS011;33618;49.972;8.242;2022-08-21T06:07:09;6.05;;;2.50;;
47856;SDS011;33618;49.972;8.242;2022-08-21T06:09:37;5.63;;;3.03;;
47856;SDS011;33618;49.972;8.242;2022-08-21T06:12:11;8.32;;;2.75;;
47856;SDS011;33618;49.972;8.242;2022-08-21T06:14:40;5.10;;;2.70;;
47856;SDS011;33618;49.972;8.242;2022-08-21T06:17:09;5.13;;;2.90;;
47856;SDS011;33618;49.972;8.242;2022-08-21T06:19:37;4.70;;;2.97;;
47856;SDS011;33618;49.972;8.242;2022-08-21T06:22:07;5.22;;;2.70;;
47856;SDS011;33618;49.972;8.242;2022-08-21T06:24:34;3.85;;;2.58;;
47856;SDS011;33618;49.972;8.242;2022-08-21T06:27:06;8.05;;;2.90;;
47856;SDS011;33618;49.972;8.242;2022-08-21T06:29:34;7.68;;;3.20;;
47856;SDS011;33618;49.972;8.242;2022-08-21T06:32:10;8.15;;;2.97;;
47856;SDS011;33618;49.972;8.242;2022-08-21T06:34:38;4.68;;;3.10;;
47856;SDS011;33618;49.972;8.242;2022-08-21T06:37:06;3.72;;;2.30;;
47856;SDS011;33618;49.972;8.242;2022-08-21T06:39:34;5.32;;;2.83;;
47856;SDS011;33618;49.972;8.242;2022-08-21T06:42:01;5.18;;;2.55;;
47856;SDS011;33618;49.972;8.242;2022-08-21T06:47:57;5.93;;;3.05;;
47856;SDS011;33618;49.972;8.242;2022-08-21T06:50:24;5.55;;;2.65;;
47856;SDS011;33618;49.972;8.242;2022-08-21T06:52:58;4.43;;;2.60;;
47856;SDS011;33618;49.972;8.242;2022-08-21T06:55:33;5.25;;;2.65;;
47856;SDS011;33618;49.972;8.242;2022-08-21T06:58:00;5.20;;;3.13;;
47856;SDS011;33618;49.972;8.242;2022-08-21T07:00:28;5.15;;;3.28;;
47856;SDS011;33618;49.972;8.242;2022-08-21T07:02:55;6.57;;;3.00;;
47856;SDS011;33618;49.972;8.242;2022-08-21T07:05:24;4.68;;;2.97;;
47856;SDS011;33618;49.972;8.242;2022-08-21T07:07:53;5.78;;;3.00;;
47856;SDS011;33618;49.972;8.242;2022-08-21T07:10:20;6.78;;;2.80;;
47856;SDS011;33618;49.972;8.242;2022-08-21T07:12:49;5.35;;;2.63;;
47856;SDS011;33618;49.972;8.242;2022-08-21T07:15:25;6.38;;;2.97;;
47856;SDS011;33618;49.972;8.242;2022-08-21T07:17:53;4.57;;;2.92;;
47856;SDS011;33618;49.972;8.242;2022-08-21T07:20:20;7.63;;;3.17;;
47856;SDS011;33618;49.972;8.242;2022-08-21T07:22:47;6.50;;;3.20;;
47856;SDS011;33618;49.972;8.242;2022-08-21T07:25:15;6.15;;;3.30;;
47856;SDS011;33618;49.972;8.242;2022-08-21T07:27:42;6.78;;;3.20;;
47856;SDS011;33618;49.972;8.242;2022-08-21T07:30:09;4.70;;;2.88;;
47856;SDS011;33618;49.972;8.242;2022-08-21T07:32:36;11.65;;;3.63;;
47856;SDS011;33618;49.972;8.242;2022-08-21T07:35:03;6.95;;;3.55;;
47856;SDS011;33618;49.972;8.242;2022-08-21T07:37:30;5.57;;;2.83;;
47856;SDS011;33618;49.972;8.242;2022-08-21T07:39:57;4.78;;;3.28;;
47856;SDS011;33618;49.972;8.242;2022-08-21T07:42:25;4.13;;;3.15;;
47856;SDS011;33618;49.972;8.242;2022-08-21T07:52:10;5.15;;;3.42;;
47856;SDS011;33618;49.972;8.242;2022-08-21T07:54:36;5.18;;;3.30;;
47856;SDS011;33618;49.972;8.242;2022-08-21T07:57:03;10.43;;;3.53;;
47856;SDS011;33618;49.972;8.242;2022-08-21T07:59:31;5.75;;;3.30;;
47856;SDS011;33618;49.972;8.242;2022-08-21T08:01:58;6.65;;;3.10;;
47856;SDS011;33618;49.972;8.242;2022-08-21T08:04:25;6.80;;;4.07;;
47856;SDS011;33618;49.972;8.242;2022-08-21T08:06:52;6.13;;;3.67;;
47856;SDS011;33618;49.972;8.242;2022-08-21T08:09:19;9.23;;;4.10;;
47856;SDS011;33618;49.972;8.242;2022-08-21T08:11:46;5.57;;;4.22;;
47856;SDS011;33618;49.972;8.242;2022-08-21T08:14:13;5.78;;;3.92;;
47856;SDS011;33618;49.972;8.242;2022-08-21T08:16:41;5.55;;;4.10;;
47856;SDS011;33618;49.972;8.242;2022-08-21T08:19:08;6.15;;;5.10;;
47856;SDS011;33618;49.972;8.242;2022-08-21T08:21:35;6.15;;;5.10;;
47856;SDS011;33618;49.972;8.242;2022-08-21T08:24:03;6.28;;;4.30;;
47856;SDS011;33618;49.972;8.242;2022-08-21T08:26:44;7.13;;;4.47;;
47856;SDS011;33618;49.972;8.242;2022-08-21T08:29:18;6.05;;;4.55;;
47856;SDS011;33618;49.972;8.242;2022-08-21T08:31:46;6.57;;;4.13;;
47856;SDS011;33618;49.972;8.242;2022-08-21T08:34:13;5.45;;;3.70;;
47856;SDS011;33618;49.972;8.242;2022-08-21T08:36:50;6.88;;;4.25;;
47856;SDS011;33618;49.972;8.242;2022-08-21T08:39:18;4.88;;;3.83;;
47856;SDS011;33618;49.972;8.242;2022-08-21T08:41:56;6.45;;;4.20;;
47856;SDS011;33618;49.972;8.242;2022-08-21T08:44:53;8.35;;;4.55;;
47856;SDS011;33618;49.972;8.242;2022-08-21T08:50:52;6.40;;;3.67;;
47856;SDS011;33618;49.972;8.242;2022-08-21T08:53:32;8.93;;;4.15;;
47856;SDS011;33618;49.972;8.242;2022-08-21T08:56:04;6.93;;;3.97;;
47856;SDS011;33618;49.972;8.242;2022-08-21T08:58:37;4.50;;;3.92;;
47856;SDS011;33618;49.972;8.242;2022-08-21T09:01:10;4.95;;;3.53;;
47856;SDS011;33618;49.972;8.242;2022-08-21T09:03:44;7.07;;;3.15;;
47856;SDS011;33618;49.972;8.242;2022-08-21T09:09:15;6.18;;;2.95;;
47856;SDS011;33618;49.972;8.242;2022-08-21T09:11:57;5.72;;;3.08;;
47856;SDS011;33618;49.972;8.242;2022-08-21T09:23:25;5.25;;;3.13;;
47856;SDS011;33618;49.972;8.242;2022-08-21T09:26:13;8.13;;;3.28;;
47856;SDS011;33618;49.972;8.242;2022-08-21T09:28:41;7.63;;;3.35;;
47856;SDS011;33618;49.972;8.242;2022-08-21T09:31:11;5.03;;;3.28;;
47856;SDS011;33618;49.972;8.242;2022-08-21T09:33:43;4.72;;;3.50;;
47856;SDS011;33618;49.972;8.242;2022-08-21T09:36:09;6.72;;;3.13;;
47856;SDS011;33618;49.972;8.242;2022-08-21T09:38:36;5.40;;;3.40;;
47856;SDS011;33618;49.972;8.242;2022-08-21T09:41:05;5.72;;;3.20;;
47856;SDS011;33618;49.972;8.242;2022-08-21T09:43:35;4.03;;;3.65;;
47856;SDS011;33618;49.972;8.242;2022-08-21T09:49:27;5.18;;;2.88;;
47856;SDS011;33618;49.972;8.242;2022-08-21T09:51:56;4.70;;;3.00;;
47856;SDS011;33618;49.972;8.242;2022-08-21T09:54:32;3.90;;;2.90;;
47856;SDS011;33618;49.972;8.242;2022-08-21T09:59:55;6.38;;;3.38;;
47856;SDS011;33618;49.972;8.242;2022-08-21T10:02:27;6.72;;;3.25;;
47856;SDS011;33618;49.972;8.242;2022-08-21T10:04:58;4.88;;;3.08;;
47856;SDS011;33618;49.972;8.242;2022-08-21T10:07:42;3.38;;;2.45;;
47856;SDS011;33618;49.972;8.242;2022-08-21T10:10:14;5.38;;;2.70;;
47856;SDS011;33618;49.972;8.242;2022-08-21T10:18:39;4.63;;;2.33;;
47856;SDS011;33618;49.972;8.242;2022-08-21T10:27:44;3.97;;;2.13;;
47856;SDS011;33618;49.972;8.242;2022-08-21T10:29:51;3.42;;;2.25;;
47856;SDS011;33618;49.972;8.242;2022-08-21T10:41:03;5.90;;;2.47;;
47856;SDS011;33618;49.972;8.242;2022-08-21T10:44:03;7.28;;;2.55;;
47856;SDS011;33618;49.972;8.242;2022-08-21T10:50:40;4.35;;;2.20;;
47856;SDS011;33618;49.972;8.242;2022-08-21T10:55:56;3.38;;;2.22;;
47856;SDS011;33618;49.972;8.242;2022-08-21T10:59:39;2.72;;;2.22;;
47856;SDS011;33618;49.972;8.242;2022-08-21T11:02:19;8.27;;;2.65;;
47856;SDS011;33618;49.972;8.242;2022-08-21T11:05:15;3.70;;;2.28;;
47856;SDS011;33618;49.972;8.242;2022-08-21T11:07:48;5.78;;;2.78;;
47856;SDS011;33618;49.972;8.242;2022-08-21T11:13:37;4.13;;;2.10;;
47856;SDS011;33618;49.972;8.242;2022-08-21T11:16:26;2.40;;;1.95;;
47856;SDS011;33618;49.972;8.242;2022-08-21T11:21:50;3.00;;;2.13;;
47856;SDS011;33618;49.972;8.242;2022-08-21T11:24:32;3.35;;;2.00;;
47856;SDS011;33618;49.972;8.242;2022-08-21T11:27:36;2.83;;;2.00;;
47856;SDS011;33618;49.972;8.242;2022-08-21T11:30:17;3.03;;;2.10;;
47856;SDS011;33618;49.972;8.242;2022-08-21T11:38:20;4.07;;;2.03;;
47856;SDS011;33618;49.972;8.242;2022-08-21T11:41:03;3.35;;;2.08;;
47856;SDS011;33618;49.972;8.242;2022-08-21T11:43:56;2.38;;;2.17;;
47856;SDS011;33618;49.972;8.242;2022-08-21T11:50:20;2.28;;;1.83;;
47856;SDS011;33618;49.972;8.242;2022-08-21T11:53:04;3.30;;;2.20;;
47856;SDS011;33618;49.972;8.242;2022-08-21T11:58:17;4.50;;;2.03;;
47856;SDS011;33618;49.972;8.242;2022-08-21T12:00:53;3.17;;;1.90;;
47856;SDS011;33618;49.972;8.242;2022-08-21T12:06:27;3.15;;;2.30;;
47856;SDS011;33618;49.972;8.242;2022-08-21T12:08:57;5.20;;;2.15;;
47856;SDS011;33618;49.972;8.242;2022-08-21T12:11:30;3.42;;;2.15;;
47856;SDS011;33618;49.972;8.242;2022-08-21T12:16:34;3.30;;;2.20;;
47856;SDS011;33618;49.972;8.242;2022-08-21T12:19:10;4.75;;;2.20;;
47856;SDS011;33618;49.972;8.242;2022-08-21T12:21:51;2.85;;;2.10;;
47856;SDS011;33618;49.972;8.242;2022-08-21T12:26:54;3.13;;;2.15;;
47856;SDS011;33618;49.972;8.242;2022-08-21T12:29:28;3.42;;;2.15;;
47856;SDS011;33618;49.972;8.242;2022-08-21T12:32:03;4.40;;;2.30;;
47856;SDS011;33618;49.972;8.242;2022-08-21T12:37:45;3.80;;;1.90;;
47856;SDS011;33618;49.972;8.242;2022-08-21T12:40:04;1.92;;;1.77;;
47856;SDS011;33618;49.972;8.242;2022-08-21T12:42:49;3.13;;;2.10;;
47856;SDS011;33618;49.972;8.242;2022-08-21T12:51:41;3.33;;;2.08;;
47856;SDS011;33618;49.972;8.242;2022-08-21T12:54:30;3.53;;;1.90;;
47856;SDS011;33618;49.972;8.242;2022-08-21T12:57:04;4.05;;;2.03;;
47856;SDS011;33618;49.972;8.242;2022-08-21T12:59:37;4.05;;;2.00;;
47856;SDS011;33618;49.972;8.242;2022-08-21T13:02:16;4.00;;;2.00;;
47856;SDS011;33618;49.972;8.242;2022-08-21T13:04:46;2.90;;;1.80;;
47856;SDS011;33618;49.972;8.242;2022-08-21T13:07:16;3.03;;;1.90;;
47856;SDS011;33618;49.972;8.242;2022-08-21T13:09:56;2.78;;;1.90;;
47856;SDS011;33618;49.972;8.242;2022-08-21T13:12:26;5.88;;;2.13;;
47856;SDS011;33618;49.972;8.242;2022-08-21T13:14:58;3.03;;;2.03;;
47856;SDS011;33618;49.972;8.242;2022-08-21T13:17:35;2.90;;;2.30;;
47856;SDS011;33618;49.972;8.242;2022-08-21T13:22:45;2.22;;;1.95;;
47856;SDS011;33618;49.972;8.242;2022-08-21T13:25:13;4.30;;;1.90;;
47856;SDS011;33618;49.972;8.242;2022-08-21T13:27:43;2.78;;;1.90;;
47856;SDS011;33618;49.972;8.242;2022-08-21T13:30:18;2.00;;;1.80;;
47856;SDS011;33618;49.972;8.242;2022-08-21T13:32:50;2.42;;;1.60;;
47856;SDS011;33618;49.972;8.242;2022-08-21T13:35:26;3.40;;;1.83;;
47856;SDS011;33618;49.972;8.242;2022-08-21T13:37:56;2.85;;;1.70;;
47856;SDS011;33618;49.972;8.242;2022-08-21T13:40:27;2.88;;;1.83;;
47856;SDS011;33618;49.972;8.242;2022-08-21T13:42:57;2.80;;;1.83;;
47856;SDS011;33618;49.972;8.242;2022-08-21T13:45:29;3.28;;;1.75;;
47856;SDS011;33618;49.972;8.242;2022-08-21T13:51:21;4.57;;;1.90;;
47856;SDS011;33618;49.972;8.242;2022-08-21T13:53:49;2.53;;;1.90;;
47856;SDS011;33618;49.972;8.242;2022-08-21T13:56:22;1.85;;;1.67;;
47856;SDS011;33618;49.972;8.242;2022-08-21T13:58:49;3.80;;;2.08;;
47856;SDS011;33618;49.972;8.242;2022-08-21T14:01:27;4.32;;;1.80;;
47856;SDS011;33618;49.972;8.242;2022-08-21T14:03:58;2.88;;;1.70;;
47856;SDS011;33618;49.972;8.242;2022-08-21T14:06:33;4.93;;;1.85;;
47856;SDS011;33618;49.972;8.242;2022-08-21T14:09:49;4.68;;;2.08;;
47856;SDS011;33618;49.972;8.242;2022-08-21T14:11:53;6.18;;;2.10;;
47856;SDS011;33618;49.972;8.242;2022-08-21T14:14:23;2.30;;;1.80;;
47856;SDS011;33618;49.972;8.242;2022-08-21T14:17:10;5.18;;;2.10;;
47856;SDS011;33618;49.972;8.242;2022-08-21T14:19:54;2.08;;;1.70;;
47856;SDS011;33618;49.972;8.242;2022-08-21T14:22:38;3.00;;;2.03;;
47856;SDS011;33618;49.972;8.242;2022-08-21T14:25:30;3.40;;;1.80;;
47856;SDS011;33618;49.972;8.242;2022-08-21T14:27:59;2.05;;;1.85;;
47856;SDS011;33618;49.972;8.242;2022-08-21T14:30:39;4.70;;;1.83;;
47856;SDS011;33618;49.972;8.242;2022-08-21T14:33:10;2.70;;;1.90;;
47856;SDS011;33618;49.972;8.242;2022-08-21T14:35:39;3.60;;;1.83;;
47856;SDS011;33618;49.972;8.242;2022-08-21T14:38:16;4.63;;;1.95;;
47856;SDS011;33618;49.972;8.242;2022-08-21T14:40:52;2.70;;;1.73;;
47856;SDS011;33618;49.972;8.242;2022-08-21T14:43:23;3.25;;;1.70;;
47856;SDS011;33618;49.972;8.242;2022-08-21T14:46:12;2.40;;;1.75;;
47856;SDS011;33618;49.972;8.242;2022-08-21T14:52:09;1.85;;;1.70;;
47856;SDS011;33618;49.972;8.242;2022-08-21T14:54:36;2.28;;;1.60;;
47856;SDS011;33618;49.972;8.242;2022-08-21T14:57:12;4.07;;;2.00;;
47856;SDS011;33618;49.972;8.242;2022-08-21T14:59:39;2.83;;;1.80;;
47856;SDS011;33618;49.972;8.242;2022-08-21T15:02:07;5.10;;;2.00;;
47856;SDS011;33618;49.972;8.242;2022-08-21T15:04:35;2.50;;;1.63;;
47856;SDS011;33618;49.972;8.242;2022-08-21T15:07:02;3.72;;;2.33;;
47856;SDS011;33618;49.972;8.242;2022-08-21T15:09:29;2.28;;;1.70;;
47856;SDS011;33618;49.972;8.242;2022-08-21T15:11:57;5.32;;;2.03;;
47856;SDS011;33618;49.972;8.242;2022-08-21T15:14:27;2.65;;;1.90;;
47856;SDS011;33618;49.972;8.242;2022-08-21T15:16:58;4.68;;;1.80;;
47856;SDS011;33618;49.972;8.242;2022-08-21T15:19:25;2.80;;;1.70;;
47856;SDS011;33618;49.972;8.242;2022-08-21T15:21:53;2.80;;;2.10;;
47856;SDS011;33618;49.972;8.242;2022-08-21T15:24:20;5.15;;;1.90;;
47856;SDS011;33618;49.972;8.242;2022-08-21T15:26:47;3.35;;;1.83;;
47856;SDS011;33618;49.972;8.242;2022-08-21T15:29:14;2.13;;;1.70;;
47856;SDS011;33618;49.972;8.242;2022-08-21T15:34:18;3.47;;;1.90;;
47856;SDS011;33618;49.972;8.242;2022-08-21T15:36:49;2.03;;;1.80;;
47856;SDS011;33618;49.972;8.242;2022-08-21T15:39:21;2.38;;;1.75;;
47856;SDS011;33618;49.972;8.242;2022-08-21T15:41:55;2.40;;;1.70;;
47856;SDS011;33618;49.972;8.242;2022-08-21T15:44:22;1.88;;;1.73;;
47856;SDS011;33618;49.972;8.242;2022-08-21T15:46:50;2.75;;;1.80;;
47856;SDS011;33618;49.972;8.242;2022-08-21T16:09:26;1.70;;;1.60;;
47856;SDS011;33618;49.972;8.242;2022-08-21T16:11:53;4.90;;;2.00;;
47856;SDS011;33618;49.972;8.242;2022-08-21T16:14:20;3.30;;;1.83;;
47856;SDS011;33618;49.972;8.242;2022-08-21T16:16:47;2.22;;;1.63;;
47856;SDS011;33618;49.972;8.242;2022-08-21T16:19:14;3.70;;;1.60;;
47856;SDS011;33618;49.972;8.242;2022-08-21T16:21:42;2.75;;;1.60;;
47856;SDS011;33618;49.972;8.242;2022-08-21T16:24:08;3.00;;;1.73;;
47856;SDS011;33618;49.972;8.242;2022-08-21T16:26:35;2.60;;;1.50;;
47856;SDS011;33618;49.972;8.242;2022-08-21T16:29:03;3.28;;;1.70;;
47856;SDS011;33618;49.972;8.242;2022-08-21T16:31:32;1.65;;;1.55;;
47856;SDS011;33618;49.972;8.242;2022-08-21T16:34:00;3.42;;;2.03;;
47856;SDS011;33618;49.972;8.242;2022-08-21T16:36:27;3.35;;;2.00;;
47856;SDS011;33618;49.972;8.242;2022-08-21T16:38:55;4.00;;;1.98;;
47856;SDS011;33618;49.972;8.242;2022-08-21T16:49:49;3.38;;;2.05;;
47856;SDS011;33618;49.972;8.242;2022-08-21T16:52:16;2.47;;;1.70;;
47856;SDS011;33618;49.972;8.242;2022-08-21T16:54:44;1.92;;;1.73;;
47856;SDS011;33618;49.972;8.242;2022-08-21T16:57:11;2.95;;;1.77;;
47856;SDS011;33618;49.972;8.242;2022-08-21T16:59:37;4.57;;;1.88;;
47856;SDS011;33618;49.972;8.242;2022-08-21T17:02:10;4.05;;;1.80;;
47856;SDS011;33618;49.972;8.242;2022-08-21T17:05:03;2.70;;;1.80;;
47856;SDS011;33618;49.972;8.242;2022-08-21T17:07:38;4.75;;;1.95;;
47856;SDS011;33618;49.972;8.242;2022-08-21T17:10:06;2.10;;;1.60;;
47856;SDS011;33618;49.972;8.242;2022-08-21T17:12:34;4.70;;;1.70;;
47856;SDS011;33618;49.972;8.242;2022-08-21T17:15:06;5.00;;;2.85;;
47856;SDS011;33618;49.972;8.242;2022-08-21T17:17:37;4.00;;;2.10;;
47856;SDS011;33618;49.972;8.242;2022-08-21T17:20:05;4.35;;;2.17;;
47856;SDS011;33618;49.972;8.242;2022-08-21T17:22:32;2.72;;;1.52;;
47856;SDS011;33618;49.972;8.242;2022-08-21T17:24:59;2.63;;;1.98;;
47856;SDS011;33618;49.972;8.242;2022-08-21T17:27:26;4.38;;;1.77;;
47856;SDS011;33618;49.972;8.242;2022-08-21T17:29:54;1.92;;;1.55;;
47856;SDS011;33618;49.972;8.242;2022-08-21T17:32:22;1.95;;;1.58;;
47856;SDS011;33618;49.972;8.242;2022-08-21T17:34:49;1.77;;;1.40;;
47856;SDS011;33618;49.972;8.242;2022-08-21T17:37:17;4.03;;;1.80;;
47856;SDS011;33618;49.972;8.242;2022-08-21T17:39:45;2.53;;;1.70;;
47856;SDS011;33618;49.972;8.242;2022-08-21T17:50:13;3.20;;;1.80;;
47856;SDS011;33618;49.972;8.242;2022-08-21T18:00:13;4.65;;;1.55;;
47856;SDS011;33618;49.972;8.242;2022-08-21T18:02:42;1.50;;;1.40;;
47856;SDS011;33618;49.972;8.242;2022-08-21T18:05:12;2.25;;;1.50;;
47856;SDS011;33618;49.972;8.242;2022-08-21T18:07:40;1.67;;;1.50;;
47856;SDS011;33618;49.972;8.242;2022-08-21T18:10:08;2.00;;;1.30;;
47856;SDS011;33618;49.972;8.242;2022-08-21T18:12:38;1.48;;;1.38;;
47856;SDS011;33618;49.972;8.242;2022-08-21T18:15:07;1.90;;;1.60;;
47856;SDS011;33618;49.972;8.242;2022-08-21T18:17:38;3.75;;;1.70;;
47856;SDS011;33618;49.972;8.242;2022-08-21T18:20:07;1.77;;;1.50;;
47856;SDS011;33618;49.972;8.242;2022-08-21T18:22:35;2.92;;;1.40;;
47856;SDS011;33618;49.972;8.242;2022-08-21T18:25:03;3.42;;;1.40;;
47856;SDS011;33618;49.972;8.242;2022-08-21T18:27:31;2.15;;;1.40;;
47856;SDS011;33618;49.972;8.242;2022-08-21T18:29:58;1.70;;;1.42;;
47856;SDS011;33618;49.972;8.242;2022-08-21T18:32:26;1.73;;;1.33;;